createdAt,value
2022-10-01T00:00:23.896Z,13.2
2022-10-01T00:01:38.294Z,13.2
2022-10-01T00:02:52.623Z,13.2
2022-10-01T00:04:06.900Z,13.2
2022-10-01T00:05:21.188Z,13.1
2022-10-01T00:06:35.590Z,13.2
2022-10-01T00:07:49.903Z,13.2
2022-10-01T00:09:04.195Z,13.2
2022-10-01T00:10:18.463Z,13.2
2022-10-01T00:11:32.870Z,13.2
2022-10-01T00:12:47.211Z,13.2
2022-10-01T00:14:01.496Z,13.2
2022-10-01T00:15:15.820Z,13.2
2022-10-01T00:16:30.226Z,13.2
2022-10-01T00:17:44.561Z,13.2
2022-10-01T00:18:57.919Z,13.2
2022-10-01T00:20:12.203Z,13.2
2022-10-01T00:21:26.606Z,13.2
2022-10-01T00:22:40.938Z,13.3
2022-10-01T00:25:09.482Z,13.3
2022-10-01T00:26:23.897Z,13.4
2022-10-01T00:27:38.220Z,13.4
2022-10-01T00:28:52.499Z,13.4
2022-10-01T00:30:06.780Z,13.4
2022-10-01T00:31:21.192Z,13.4
2022-10-01T00:32:35.511Z,13.4
2022-10-01T00:33:49.784Z,13.4
2022-10-01T00:35:04.067Z,13.4
2022-10-01T00:36:18.482Z,13.4
2022-10-01T00:37:32.809Z,13.4
2022-10-01T00:38:47.085Z,13.4
2022-10-01T00:40:01.370Z,13.4
2022-10-01T00:41:15.778Z,13.4
2022-10-01T00:42:30.090Z,13.4
2022-10-01T00:43:44.377Z,13.4
2022-10-01T00:44:58.649Z,13.4
2022-10-01T00:46:13.059Z,13.4
2022-10-01T00:47:27.393Z,13.4
2022-10-01T00:48:41.658Z,13.4
2022-10-01T00:49:56.000Z,13.4
2022-10-01T00:51:10.405Z,13.4
2022-10-01T00:52:24.753Z,13.4
2022-10-01T00:53:38.091Z,13.5
2022-10-01T00:54:52.374Z,13.4
2022-10-01T00:56:06.791Z,13.4
2022-10-01T00:57:21.117Z,13.4
2022-10-01T00:58:35.391Z,13.4
2022-10-01T00:59:49.673Z,13.4
2022-10-01T01:01:04.067Z,13.4
2022-10-01T01:02:18.406Z,13.4
2022-10-01T01:03:32.685Z,13.4
2022-10-01T01:04:46.958Z,13.5
2022-10-01T01:06:01.362Z,13.4
2022-10-01T01:07:15.697Z,13.4
2022-10-01T01:08:29.976Z,13.4
2022-10-01T01:09:44.246Z,13.4
2022-10-01T01:10:58.658Z,13.4
2022-10-01T01:12:12.984Z,13.4
2022-10-01T01:13:27.268Z,13.5
2022-10-01T01:14:41.534Z,13.5
2022-10-01T01:15:55.941Z,13.5
2022-10-01T01:17:10.279Z,13.5
2022-10-01T01:18:24.545Z,13.6
2022-10-01T01:19:38.837Z,13.6
2022-10-01T01:20:53.237Z,13.6
2022-10-01T01:22:07.555Z,13.6
2022-10-01T01:23:21.836Z,13.6
2022-10-01T01:24:36.186Z,13.6
2022-10-01T01:25:50.589Z,13.6
2022-10-01T01:27:04.930Z,13.6
2022-10-01T01:28:18.271Z,13.6
2022-10-01T01:29:32.549Z,13.6
2022-10-01T01:32:01.290Z,13.6
2022-10-01T01:33:15.562Z,13.6
2022-10-01T01:34:29.856Z,13.6
2022-10-01T01:35:44.274Z,13.6
2022-10-01T01:36:58.585Z,13.6
2022-10-01T01:38:12.860Z,13.5
2022-10-01T01:39:27.132Z,13.5
2022-10-01T01:40:41.538Z,13.4
2022-10-01T01:41:55.861Z,13.3
2022-10-01T01:43:10.156Z,13.3
2022-10-01T01:44:24.466Z,13.2
2022-10-01T01:45:38.696Z,13.1
2022-10-01T01:46:53.103Z,13
2022-10-01T01:48:07.438Z,13
2022-10-01T01:49:21.706Z,12.9
2022-10-01T01:50:36.000Z,12.8
2022-10-01T01:51:50.402Z,12.7
2022-10-01T01:53:04.722Z,12.6
2022-10-01T01:54:19.003Z,12.5
2022-10-01T01:55:33.275Z,12.4
2022-10-01T01:56:47.691Z,12.3
2022-10-01T01:58:02.007Z,12.2
2022-10-01T01:59:16.354Z,12.2
2022-10-01T02:00:29.748Z,12.1
2022-10-01T02:01:44.080Z,12.1
2022-10-01T02:02:57.434Z,12.1
2022-10-01T02:04:11.707Z,12.1
2022-10-01T02:05:26.116Z,12.1
2022-10-01T02:06:40.447Z,12.2
2022-10-01T02:07:54.722Z,12.2
2022-10-01T02:09:09.007Z,12.1
2022-10-01T02:10:23.410Z,12
2022-10-01T02:11:37.723Z,12
2022-10-01T02:12:52.003Z,12
2022-10-01T02:14:06.288Z,12
2022-10-01T02:15:20.710Z,11.9
2022-10-01T02:16:35.023Z,11.9
2022-10-01T02:17:49.314Z,11.8
2022-10-01T02:19:03.580Z,11.8
2022-10-01T02:20:17.998Z,11.8
2022-10-01T02:21:32.319Z,11.7
2022-10-01T02:22:46.586Z,11.6
2022-10-01T02:24:00.881Z,11.6
2022-10-01T02:25:15.281Z,11.6
2022-10-01T02:26:29.600Z,11.6
2022-10-01T02:27:43.879Z,11.5
2022-10-01T02:28:58.169Z,11.6
2022-10-01T02:30:12.574Z,11.5
2022-10-01T02:31:26.903Z,11.4
2022-10-01T02:32:41.180Z,11.4
2022-10-01T02:33:55.526Z,11.4
2022-10-01T02:35:09.923Z,11.4
2022-10-01T02:36:24.267Z,11.4
2022-10-01T02:37:37.606Z,11.5
2022-10-01T02:38:51.892Z,11.4
2022-10-01T02:40:06.298Z,11.4
2022-10-01T02:41:20.631Z,11.4
2022-10-01T02:42:34.898Z,11.3
2022-10-01T02:43:49.176Z,11.3
2022-10-01T02:45:03.584Z,11.3
2022-10-01T02:46:17.913Z,11.3
2022-10-01T02:47:32.203Z,11.3
2022-10-01T02:48:46.477Z,11.3
2022-10-01T02:50:00.882Z,11.2
2022-10-01T02:51:15.216Z,11.2
2022-10-01T02:52:29.496Z,11.1
2022-10-01T02:53:43.776Z,11.1
2022-10-01T02:54:58.173Z,11.1
2022-10-01T02:56:12.495Z,11.1
2022-10-01T02:57:26.771Z,11.1
2022-10-01T02:58:41.068Z,11
2022-10-01T02:59:55.469Z,11
2022-10-01T03:01:09.782Z,11
2022-10-01T03:02:24.067Z,11
2022-10-01T03:03:38.345Z,11
2022-10-01T03:04:52.767Z,11
2022-10-01T03:06:07.082Z,10.9
2022-10-01T03:07:21.361Z,10.9
2022-10-01T03:08:35.701Z,10.9
2022-10-01T03:09:50.117Z,10.9
2022-10-01T03:11:04.445Z,10.9
2022-10-01T03:12:17.786Z,10.9
2022-10-01T03:13:32.070Z,10.9
2022-10-01T03:14:46.483Z,10.9
2022-10-01T03:16:00.799Z,10.9
2022-10-01T03:17:15.081Z,10.9
2022-10-01T03:18:29.358Z,10.8
2022-10-01T03:19:43.781Z,10.8
2022-10-01T03:20:58.097Z,10.8
2022-10-01T03:22:12.377Z,10.8
2022-10-01T03:23:26.651Z,10.8
2022-10-01T03:24:41.075Z,10.8
2022-10-01T03:25:55.360Z,10.8
2022-10-01T03:27:09.650Z,10.8
2022-10-01T03:28:23.914Z,10.8
2022-10-01T03:29:38.329Z,10.8
2022-10-01T03:30:52.652Z,10.8
2022-10-01T03:32:06.935Z,10.8
2022-10-01T03:33:21.220Z,10.8
2022-10-01T03:34:35.618Z,10.8
2022-10-01T03:35:49.938Z,10.8
2022-10-01T03:37:04.226Z,10.8
2022-10-01T03:38:18.500Z,10.8
2022-10-01T03:39:32.924Z,10.8
2022-10-01T03:40:47.237Z,10.8
2022-10-01T03:42:01.510Z,10.8
2022-10-01T03:43:15.862Z,10.8
2022-10-01T03:44:30.257Z,10.8
2022-10-01T03:45:44.604Z,10.8
2022-10-01T03:46:57.941Z,10.9
2022-10-01T03:48:12.239Z,10.9
2022-10-01T03:49:26.631Z,10.9
2022-10-01T03:50:40.963Z,10.9
2022-10-01T03:51:55.235Z,10.9
2022-10-01T03:53:09.531Z,10.9
2022-10-01T03:54:23.932Z,10.9
2022-10-01T03:55:38.261Z,10.9
2022-10-01T03:56:52.530Z,10.9
2022-10-01T03:58:06.804Z,10.9
2022-10-01T03:59:21.228Z,10.9
2022-10-01T04:00:35.546Z,10.9
2022-10-01T04:01:49.823Z,10.9
2022-10-01T04:03:04.104Z,10.9
2022-10-01T04:04:18.507Z,10.9
2022-10-01T04:05:32.845Z,10.9
2022-10-01T04:06:47.117Z,10.9
2022-10-01T04:08:01.398Z,10.9
2022-10-01T04:09:15.797Z,10.9
2022-10-01T04:10:30.099Z,10.9
2022-10-01T04:11:44.374Z,10.9
2022-10-01T04:12:58.656Z,10.9
2022-10-01T04:14:13.075Z,10.9
2022-10-01T04:15:27.385Z,11
2022-10-01T04:16:41.679Z,11
2022-10-01T04:17:55.951Z,11
2022-10-01T04:19:10.373Z,11
2022-10-01T04:20:24.705Z,11
2022-10-01T04:21:38.051Z,11
2022-10-01T04:22:52.327Z,11
2022-10-01T04:24:06.734Z,11
2022-10-01T04:25:21.065Z,11
2022-10-01T04:26:35.345Z,11
2022-10-01T04:27:49.622Z,11
2022-10-01T04:29:04.022Z,11
2022-10-01T04:30:18.360Z,11
2022-10-01T04:31:32.638Z,11.1
2022-10-01T04:32:46.919Z,11.1
2022-10-01T04:34:01.315Z,11.1
2022-10-01T04:35:15.653Z,11.1
2022-10-01T04:36:29.933Z,11.1
2022-10-01T04:37:44.150Z,11.1
2022-10-01T04:38:58.551Z,11.1
2022-10-01T04:40:12.890Z,11.2
2022-10-01T04:41:27.168Z,11.2
2022-10-01T04:42:41.436Z,11.2
2022-10-01T04:43:55.852Z,11.2
2022-10-01T04:45:10.178Z,11.2
2022-10-01T04:46:24.466Z,11.1
2022-10-01T04:47:38.738Z,11.1
2022-10-01T04:48:53.082Z,11.1
2022-10-01T04:50:07.422Z,11.1
2022-10-01T04:51:21.698Z,11.1
2022-10-01T04:52:36.036Z,11.1
2022-10-01T04:53:50.438Z,11.1
2022-10-01T04:55:04.781Z,11.1
2022-10-01T04:56:18.140Z,11.1
2022-10-01T04:57:32.420Z,11.1
2022-10-01T04:58:46.815Z,11.1
2022-10-01T05:00:01.138Z,11.1
2022-10-01T05:01:15.416Z,11.1
2022-10-01T05:02:29.713Z,11.1
2022-10-01T05:03:44.117Z,11.1
2022-10-01T05:04:58.442Z,11.1
2022-10-01T05:06:12.678Z,11.1
2022-10-01T05:07:26.908Z,11.1
2022-10-01T05:08:41.203Z,11.1
2022-10-01T05:09:55.447Z,11.1
2022-10-01T05:11:09.724Z,11.1
2022-10-01T05:12:23.940Z,11.1
2022-10-01T05:14:52.476Z,11.1
2022-10-01T05:16:06.703Z,11.1
2022-10-01T05:17:20.945Z,11.2
2022-10-01T05:18:35.169Z,11.2
2022-10-01T05:19:49.397Z,11.1
2022-10-01T05:21:03.681Z,11.2
2022-10-01T05:22:17.936Z,11.2
2022-10-01T05:23:32.166Z,11.2
2022-10-01T05:24:46.390Z,11.2
2022-10-01T05:26:00.617Z,11.2
2022-10-01T05:27:14.963Z,11.2
2022-10-01T05:28:29.259Z,11.2
2022-10-01T05:29:42.589Z,11.2
2022-10-01T05:30:55.887Z,11.2
2022-10-01T05:32:10.122Z,11.2
2022-10-01T05:33:24.345Z,11.3
2022-10-01T05:34:38.578Z,11.2
2022-10-01T05:35:52.797Z,11.2
2022-10-01T05:37:07.104Z,11.2
2022-10-01T05:38:21.336Z,11.2
2022-10-01T05:39:35.569Z,11.2
2022-10-01T05:40:49.784Z,11.3
2022-10-01T05:42:04.024Z,11.3
2022-10-01T05:43:18.317Z,11.3
2022-10-01T05:44:32.559Z,11.3
2022-10-01T05:45:46.794Z,11.3
2022-10-01T05:47:01.021Z,11.3
2022-10-01T05:48:15.246Z,11.3
2022-10-01T05:49:29.542Z,11.3
2022-10-01T05:50:43.785Z,11.3
2022-10-01T05:51:58.008Z,11.3
2022-10-01T05:53:12.228Z,11.4
2022-10-01T05:54:26.451Z,11.3
2022-10-01T05:55:40.755Z,11.3
2022-10-01T05:56:55.000Z,11.3
2022-10-01T05:58:09.233Z,11.3
2022-10-01T05:59:23.450Z,11.3
2022-10-01T06:00:37.675Z,11.3
2022-10-01T06:01:52.035Z,11.4
2022-10-01T06:03:06.316Z,11.4
2022-10-01T06:04:19.658Z,11.4
2022-10-01T06:05:33.940Z,11.3
2022-10-01T06:06:48.230Z,11.4
2022-10-01T06:08:02.516Z,11.4
2022-10-01T06:09:15.816Z,11.4
2022-10-01T06:10:30.047Z,11.4
2022-10-01T06:11:44.348Z,11.4
2022-10-01T06:12:58.585Z,11.4
2022-10-01T06:14:12.805Z,11.4
2022-10-01T06:15:27.033Z,11.4
2022-10-01T06:16:41.258Z,11.4
2022-10-01T06:17:55.561Z,11.5
2022-10-01T06:19:09.795Z,11.5
2022-10-01T06:20:24.032Z,11.5
2022-10-01T06:22:52.487Z,11.5
2022-10-01T06:24:06.780Z,11.5
2022-10-01T06:25:21.025Z,11.5
2022-10-01T06:26:35.256Z,11.5
2022-10-01T06:27:49.476Z,11.6
2022-10-01T06:29:03.698Z,11.6
2022-10-01T06:30:18.013Z,11.6
2022-10-01T06:31:32.240Z,11.6
2022-10-01T06:32:46.470Z,11.6
2022-10-01T06:34:00.695Z,11.6
2022-10-01T06:35:14.936Z,11.6
2022-10-01T06:36:29.230Z,11.6
2022-10-01T06:37:43.459Z,11.7
2022-10-01T06:38:57.704Z,11.7
2022-10-01T06:40:11.981Z,11.7
2022-10-01T06:41:25.336Z,11.7
2022-10-01T06:42:39.608Z,11.7
2022-10-01T06:43:53.896Z,11.7
2022-10-01T06:45:07.195Z,11.7
2022-10-01T06:46:21.494Z,11.7
2022-10-01T06:47:35.744Z,11.7
2022-10-01T06:48:49.962Z,11.7
2022-10-01T06:50:04.196Z,11.7
2022-10-01T06:51:18.418Z,11.8
2022-10-01T06:52:32.722Z,11.8
2022-10-01T06:53:46.952Z,11.8
2022-10-01T06:55:01.182Z,11.8
2022-10-01T06:56:15.414Z,11.8
2022-10-01T06:57:29.641Z,11.8
2022-10-01T06:58:43.945Z,11.8
2022-10-01T06:59:58.189Z,11.8
2022-10-01T07:01:12.399Z,11.8
2022-10-01T07:02:26.632Z,11.8
2022-10-01T07:03:40.852Z,11.8
2022-10-01T07:04:55.156Z,11.8
2022-10-01T07:06:09.400Z,11.8
2022-10-01T07:07:23.630Z,11.8
2022-10-01T07:08:37.848Z,11.8
2022-10-01T07:09:52.083Z,11.8
2022-10-01T07:11:06.377Z,11.9
2022-10-01T07:12:20.615Z,11.8
2022-10-01T07:13:34.844Z,11.8
2022-10-01T07:14:49.084Z,11.8
2022-10-01T07:16:03.352Z,11.9
2022-10-01T07:17:17.653Z,11.9
2022-10-01T07:18:31.941Z,11.9
2022-10-01T07:19:45.247Z,12
2022-10-01T07:20:59.464Z,12.1
2022-10-01T07:22:13.765Z,12
2022-10-01T07:23:28.001Z,12
2022-10-01T07:24:42.224Z,12
2022-10-01T07:25:56.455Z,12
2022-10-01T07:27:10.692Z,12
2022-10-01T07:28:24.977Z,12
2022-10-01T07:29:39.229Z,12.1
2022-10-01T07:30:53.446Z,12.1
2022-10-01T07:32:07.672Z,12
2022-10-01T07:33:21.906Z,12.1
2022-10-01T07:34:36.201Z,12.1
2022-10-01T07:35:50.446Z,12.1
2022-10-01T07:37:04.674Z,12.1
2022-10-01T07:38:18.909Z,12.1
2022-10-01T07:39:33.130Z,12.1
2022-10-01T07:40:47.423Z,12.1
2022-10-01T07:42:01.661Z,12.1
2022-10-01T07:43:15.903Z,12.1
2022-10-01T07:44:30.131Z,12.2
2022-10-01T07:45:44.348Z,12.1
2022-10-01T07:46:58.659Z,12.1
2022-10-01T07:48:12.895Z,12.1
2022-10-01T07:49:27.113Z,12.1
2022-10-01T07:50:41.401Z,12.2
2022-10-01T07:51:54.708Z,12.2
2022-10-01T07:53:08.934Z,12.2
2022-10-01T07:54:23.162Z,12.2
2022-10-01T07:55:37.399Z,12.2
2022-10-01T07:56:51.616Z,12.1
2022-10-01T07:58:05.928Z,12.2
2022-10-01T07:59:20.171Z,12.2
2022-10-01T08:00:34.394Z,12.2
2022-10-01T08:01:48.609Z,12.2
2022-10-01T08:03:02.844Z,12.3
2022-10-01T08:04:17.142Z,12.3
2022-10-01T08:05:31.388Z,12.3
2022-10-01T08:06:45.603Z,12.2
2022-10-01T08:09:14.070Z,12.2
2022-10-01T08:10:28.373Z,12.3
2022-10-01T08:11:42.607Z,12.3
2022-10-01T08:12:56.841Z,12.4
2022-10-01T08:14:11.052Z,12.4
2022-10-01T08:15:25.281Z,12.5
2022-10-01T08:16:39.588Z,12.5
2022-10-01T08:17:53.831Z,12.4
2022-10-01T08:19:08.058Z,12.4
2022-10-01T08:20:22.285Z,12.4
2022-10-01T08:21:36.504Z,12.4
2022-10-01T08:22:50.867Z,12.5
2022-10-01T08:24:05.141Z,12.5
2022-10-01T08:25:18.481Z,12.7
2022-10-01T08:26:32.763Z,12.7
2022-10-01T08:27:47.072Z,12.7
2022-10-01T08:29:01.356Z,12.7
2022-10-01T08:30:14.636Z,12.8
2022-10-01T08:31:28.875Z,12.9
2022-10-01T08:32:43.169Z,13.1
2022-10-01T08:33:57.402Z,13.6
2022-10-01T08:35:11.642Z,13.9
2022-10-01T08:36:25.872Z,14.1
2022-10-01T08:37:40.087Z,14.2
2022-10-01T08:38:54.382Z,14.1
2022-10-01T08:40:08.638Z,14
2022-10-01T08:41:22.859Z,14.1
2022-10-01T08:42:37.092Z,14
2022-10-01T08:43:51.306Z,13.9
2022-10-01T08:45:05.601Z,13.9
2022-10-01T08:46:19.841Z,13.8
2022-10-01T08:47:34.079Z,13.9
2022-10-01T08:48:48.304Z,13.9
2022-10-01T08:50:02.520Z,13.9
2022-10-01T08:51:16.832Z,13.8
2022-10-01T08:52:31.067Z,13.8
2022-10-01T08:53:45.291Z,13.8
2022-10-01T08:54:59.522Z,13.8
2022-10-01T08:56:13.744Z,13.8
2022-10-01T08:57:28.054Z,13.8
2022-10-01T08:58:42.284Z,13.8
2022-10-01T08:59:56.510Z,13.8
2022-10-01T09:01:10.812Z,13.7
2022-10-01T09:02:24.152Z,13.7
2022-10-01T09:03:38.442Z,13.8
2022-10-01T09:04:52.731Z,13.9
2022-10-01T09:07:20.321Z,14.3
2022-10-01T09:08:34.563Z,14.2
2022-10-01T09:09:48.796Z,14.1
2022-10-01T09:11:03.019Z,14.1
2022-10-01T09:12:17.232Z,14.1
2022-10-01T09:13:31.529Z,14.2
2022-10-01T09:14:45.787Z,14.2
2022-10-01T09:16:00.000Z,14.2
2022-10-01T09:17:14.225Z,14.2
2022-10-01T09:18:28.457Z,14.2
2022-10-01T09:19:42.763Z,14.1
2022-10-01T09:20:56.995Z,14.2
2022-10-01T09:22:11.228Z,14.3
2022-10-01T09:23:25.447Z,14.2
2022-10-01T09:24:39.672Z,14.3
2022-10-01T09:25:53.987Z,14.3
2022-10-01T09:27:08.218Z,14.3
2022-10-01T09:28:22.449Z,14.2
2022-10-01T09:29:36.674Z,14.2
2022-10-01T09:30:50.907Z,14.1
2022-10-01T09:32:05.193Z,14.1
2022-10-01T09:33:19.443Z,14.2
2022-10-01T09:34:33.668Z,14.2
2022-10-01T09:35:47.894Z,14.2
2022-10-01T09:37:02.177Z,14.2
2022-10-01T09:38:16.482Z,14.2
2022-10-01T09:39:30.767Z,14.2
2022-10-01T09:40:44.075Z,14.2
2022-10-01T09:41:58.286Z,14.3
2022-10-01T09:43:12.597Z,14.3
2022-10-01T09:44:26.825Z,14.4
2022-10-01T09:45:41.055Z,14.4
2022-10-01T09:46:55.283Z,14.5
2022-10-01T09:48:09.520Z,14.7
2022-10-01T09:49:23.803Z,14.9
2022-10-01T09:50:38.055Z,15.1
2022-10-01T09:51:52.289Z,15.7
2022-10-01T09:53:06.510Z,15.9
2022-10-01T09:54:20.728Z,15.9
2022-10-01T09:55:35.032Z,16.3
2022-10-01T09:56:49.275Z,16.7
2022-10-01T09:58:03.500Z,16.9
2022-10-01T09:59:17.732Z,16.5
2022-10-01T10:00:31.948Z,16.1
2022-10-01T10:01:46.257Z,16.3
2022-10-01T10:03:00.501Z,16.6
2022-10-01T10:04:14.726Z,16.3
2022-10-01T10:05:28.941Z,16.3
2022-10-01T10:06:43.184Z,16.7
2022-10-01T10:07:57.482Z,17.7
2022-10-01T10:09:11.707Z,17.6
2022-10-01T10:10:25.949Z,17.9
2022-10-01T10:11:40.228Z,18.7
2022-10-01T10:12:53.514Z,18.5
2022-10-01T10:14:07.763Z,18.3
2022-10-01T10:15:21.991Z,17.6
2022-10-01T10:16:36.224Z,17.3
2022-10-01T10:17:50.433Z,17.8
2022-10-01T10:19:04.741Z,18.1
2022-10-01T10:20:18.993Z,18.1
2022-10-01T10:21:33.214Z,18.1
2022-10-01T10:22:47.447Z,18.1
2022-10-01T10:24:01.654Z,17.5
2022-10-01T10:25:15.963Z,17.2
2022-10-01T10:26:30.198Z,17.1
2022-10-01T10:27:44.440Z,16.9
2022-10-01T10:28:58.655Z,16.6
2022-10-01T10:30:12.894Z,16.6
2022-10-01T10:31:27.184Z,17.6
2022-10-01T10:32:41.434Z,19.2
2022-10-01T10:33:55.645Z,20.8
2022-10-01T10:35:09.884Z,21.5
2022-10-01T10:36:24.103Z,20.9
2022-10-01T10:37:38.396Z,19.7
2022-10-01T10:38:52.641Z,20
2022-10-01T10:40:06.866Z,19.5
2022-10-01T10:41:21.090Z,19.9
2022-10-01T10:42:35.325Z,19.1
2022-10-01T10:43:49.684Z,18.7
2022-10-01T10:45:03.967Z,18.1
2022-10-01T10:46:17.302Z,17.8
2022-10-01T10:47:30.585Z,18.1
2022-10-01T10:48:44.845Z,18.1
2022-10-01T10:49:59.057Z,18.3
2022-10-01T10:51:13.299Z,19.7
2022-10-01T10:52:27.518Z,20.1
2022-10-01T10:53:41.822Z,20.4
2022-10-01T10:54:56.050Z,19.6
2022-10-01T10:56:10.280Z,19.5
2022-10-01T10:57:24.517Z,19.4
2022-10-01T10:58:38.740Z,18.6
2022-10-01T10:59:53.000Z,19
2022-10-01T11:01:07.280Z,20
2022-10-01T11:02:21.503Z,20
2022-10-01T11:03:35.732Z,19
2022-10-01T11:04:49.948Z,18.6
2022-10-01T11:06:04.250Z,18.4
2022-10-01T11:07:18.506Z,18.2
2022-10-01T11:08:32.725Z,18.1
2022-10-01T11:09:46.951Z,17.9
2022-10-01T11:11:01.177Z,17.8
2022-10-01T11:12:15.472Z,17.8
2022-10-01T11:13:29.722Z,17.8
2022-10-01T11:14:43.950Z,17.7
2022-10-01T11:15:58.166Z,17.8
2022-10-01T11:17:12.403Z,18.9
2022-10-01T11:18:26.758Z,19.4
2022-10-01T11:19:41.051Z,18.9
2022-10-01T11:20:54.341Z,18.2
2022-10-01T11:22:08.564Z,17.8
2022-10-01T11:23:22.861Z,17.6
2022-10-01T11:24:37.106Z,17.4
2022-10-01T11:25:51.326Z,17.5
2022-10-01T11:27:05.560Z,17.4
2022-10-01T11:28:19.783Z,17.3
2022-10-01T11:29:34.084Z,17.1
2022-10-01T11:30:48.320Z,17
2022-10-01T11:32:02.549Z,17
2022-10-01T11:33:16.780Z,17.1
2022-10-01T11:34:31.011Z,17.1
2022-10-01T11:35:45.309Z,17
2022-10-01T11:36:59.550Z,16.8
2022-10-01T11:38:13.768Z,16.8
2022-10-01T11:39:28.004Z,16.9
2022-10-01T11:40:42.227Z,16.9
2022-10-01T11:41:56.536Z,17
2022-10-01T11:43:10.763Z,17.1
2022-10-01T11:44:24.995Z,17
2022-10-01T11:45:39.228Z,17
2022-10-01T11:46:53.447Z,17
2022-10-01T11:48:07.739Z,17.1
2022-10-01T11:49:21.989Z,17.1
2022-10-01T11:50:36.219Z,17.2
2022-10-01T11:51:50.495Z,17.1
2022-10-01T11:53:03.823Z,16.9
2022-10-01T11:54:18.117Z,16.9
2022-10-01T11:55:31.417Z,16.7
2022-10-01T11:56:45.634Z,16.6
2022-10-01T11:57:59.937Z,16.4
2022-10-01T11:59:14.172Z,16.2
2022-10-01T12:00:28.404Z,16.1
2022-10-01T12:01:42.631Z,16
2022-10-01T12:02:56.863Z,16
2022-10-01T12:04:11.160Z,16.1
2022-10-01T12:05:25.398Z,16.2
2022-10-01T12:06:39.614Z,16.3
2022-10-01T12:07:53.851Z,16.5
2022-10-01T12:09:08.066Z,17.3
2022-10-01T12:10:22.383Z,18.2
2022-10-01T12:11:36.622Z,17.8
2022-10-01T12:12:50.833Z,17.4
2022-10-01T12:14:05.060Z,17.4
2022-10-01T12:15:19.292Z,17.4
2022-10-01T12:16:33.596Z,17.6
2022-10-01T12:17:47.835Z,19
2022-10-01T12:19:02.060Z,20.2
2022-10-01T12:20:16.281Z,20.5
2022-10-01T12:21:30.508Z,20.2
2022-10-01T12:22:44.818Z,20.1
2022-10-01T12:23:59.051Z,20.4
2022-10-01T12:25:13.275Z,20.6
2022-10-01T12:26:27.575Z,21
2022-10-01T12:27:40.893Z,20.9
2022-10-01T12:28:55.178Z,21
2022-10-01T12:30:09.468Z,20.9
2022-10-01T12:31:22.773Z,20.7
2022-10-01T12:32:37.065Z,21.2
2022-10-01T12:33:51.308Z,21.3
2022-10-01T12:35:05.526Z,21.6
2022-10-01T12:36:19.760Z,21.7
2022-10-01T12:37:33.981Z,21.8
2022-10-01T12:38:48.284Z,21.5
2022-10-01T12:40:02.524Z,21.8
2022-10-01T12:41:16.748Z,21.7
2022-10-01T12:42:30.982Z,21.5
2022-10-01T12:43:45.205Z,21.2
2022-10-01T12:44:59.497Z,20.9
2022-10-01T12:46:13.745Z,21
2022-10-01T12:47:27.973Z,21.5
2022-10-01T12:48:42.206Z,21.8
2022-10-01T12:49:56.432Z,21.4
2022-10-01T12:52:24.965Z,20.5
2022-10-01T12:53:39.195Z,19.9
2022-10-01T12:54:53.420Z,19.5
2022-10-01T12:56:07.658Z,19.1
2022-10-01T12:57:21.949Z,18.7
2022-10-01T12:58:36.191Z,18.4
2022-10-01T12:59:50.419Z,18.2
2022-10-01T13:01:04.646Z,18.1
2022-10-01T13:02:18.931Z,17.8
2022-10-01T13:03:33.225Z,17.4
2022-10-01T13:04:47.517Z,17.2
2022-10-01T13:06:00.811Z,17.2
2022-10-01T13:07:15.027Z,17
2022-10-01T13:08:29.325Z,17
2022-10-01T13:09:43.565Z,17
2022-10-01T13:10:57.798Z,17
2022-10-01T13:12:12.027Z,16.9
2022-10-01T13:13:26.255Z,16.8
2022-10-01T13:14:40.558Z,16.8
2022-10-01T13:15:54.800Z,16.8
2022-10-01T13:17:09.028Z,16.8
2022-10-01T13:18:23.247Z,16.7
2022-10-01T13:19:37.480Z,16.7
2022-10-01T13:20:51.779Z,16.7
2022-10-01T13:22:06.017Z,16.7
2022-10-01T13:23:20.245Z,16.7
2022-10-01T13:24:34.463Z,16.9
2022-10-01T13:25:48.691Z,17.3
2022-10-01T13:27:02.993Z,17.5
2022-10-01T13:28:17.239Z,17.1
2022-10-01T13:29:31.450Z,18
2022-10-01T13:30:45.683Z,17.6
2022-10-01T13:31:59.904Z,17.8
2022-10-01T13:33:14.204Z,17.7
2022-10-01T13:34:28.454Z,18.6
2022-10-01T13:35:42.686Z,19.3
2022-10-01T13:36:56.973Z,19.9
2022-10-01T13:38:10.315Z,20.1
2022-10-01T13:39:24.590Z,19.2
2022-10-01T13:40:37.929Z,18.5
2022-10-01T13:41:51.231Z,18
2022-10-01T13:43:05.473Z,18.4
2022-10-01T13:44:19.693Z,19.2
2022-10-01T13:45:33.924Z,18.8
2022-10-01T13:46:48.141Z,18.2
2022-10-01T13:48:02.439Z,18.1
2022-10-01T13:49:16.699Z,18
2022-10-01T13:50:30.909Z,17.9
2022-10-01T13:51:45.151Z,17.8
2022-10-01T13:52:59.368Z,17.8
2022-10-01T13:54:13.676Z,17.8
2022-10-01T13:55:27.900Z,17.8
2022-10-01T13:56:42.128Z,17.7
2022-10-01T13:57:56.358Z,17.7
2022-10-01T13:59:10.581Z,17.7
2022-10-01T14:00:24.897Z,17.7
2022-10-01T14:01:39.126Z,17.7
2022-10-01T14:02:53.349Z,17.6
2022-10-01T14:04:07.578Z,17.5
2022-10-01T14:05:21.802Z,17.4
2022-10-01T14:06:36.100Z,17.3
2022-10-01T14:07:50.355Z,17.3
2022-10-01T14:09:04.576Z,17.2
2022-10-01T14:10:18.811Z,17.1
2022-10-01T14:11:33.035Z,17.2
2022-10-01T14:12:47.387Z,17.2
2022-10-01T14:14:01.681Z,17.2
2022-10-01T14:15:15.946Z,17.1
2022-10-01T14:16:29.247Z,16.9
2022-10-01T14:17:43.546Z,16.7
2022-10-01T14:18:57.795Z,16.5
2022-10-01T14:20:12.016Z,16.4
2022-10-01T14:21:26.247Z,16.4
2022-10-01T14:22:40.467Z,16.4
2022-10-01T14:23:54.777Z,16.6
2022-10-01T14:25:09.019Z,16.7
2022-10-01T14:26:23.245Z,16.8
2022-10-01T14:27:37.462Z,16.7
2022-10-01T14:28:51.698Z,16.7
2022-10-01T14:30:05.983Z,17
2022-10-01T14:31:20.226Z,17.1
2022-10-01T14:32:34.452Z,17.1
2022-10-01T14:33:48.688Z,17.9
2022-10-01T14:35:02.909Z,17.8
2022-10-01T14:36:17.201Z,17.6
2022-10-01T14:37:31.457Z,17.8
2022-10-01T14:38:45.678Z,18
2022-10-01T14:39:59.913Z,18.1
2022-10-01T14:41:14.132Z,18.4
2022-10-01T14:42:28.430Z,18.6
2022-10-01T14:43:42.680Z,19.1
2022-10-01T14:44:56.901Z,19.7
2022-10-01T14:46:11.119Z,20.2
2022-10-01T14:47:25.400Z,19.8
2022-10-01T14:48:39.701Z,19.2
2022-10-01T14:49:53.996Z,19.1
2022-10-01T14:51:07.296Z,19.1
2022-10-01T14:52:21.503Z,19.3
2022-10-01T14:53:35.811Z,18.9
2022-10-01T14:54:50.000Z,18.5
2022-10-01T14:56:04.285Z,18.1
2022-10-01T14:57:18.501Z,17.9
2022-10-01T14:58:32.735Z,17.7
2022-10-01T14:59:47.043Z,17.6
2022-10-01T15:01:01.282Z,17.5
2022-10-01T15:02:15.497Z,17.4
2022-10-01T15:03:29.724Z,17.4
2022-10-01T15:04:43.960Z,17.4
2022-10-01T15:05:58.259Z,17.3
2022-10-01T15:08:26.722Z,17
2022-10-01T15:09:40.947Z,16.9
2022-10-01T15:10:55.175Z,16.8
2022-10-01T15:12:09.469Z,16.8
2022-10-01T15:13:23.720Z,16.7
2022-10-01T15:14:37.943Z,16.6
2022-10-01T15:15:52.157Z,16.6
2022-10-01T15:17:06.387Z,16.5
2022-10-01T15:18:20.691Z,16.5
2022-10-01T15:19:34.935Z,16.4
2022-10-01T15:20:49.161Z,16.4
2022-10-01T15:22:03.452Z,16.4
2022-10-01T15:23:16.736Z,16.3
2022-10-01T15:24:30.972Z,16.2
2022-10-01T15:25:45.202Z,16.2
2022-10-01T15:26:59.440Z,16.1
2022-10-01T15:28:13.657Z,16.1
2022-10-01T15:29:27.954Z,16.1
2022-10-01T15:30:42.194Z,16.1
2022-10-01T15:31:56.439Z,16.1
2022-10-01T15:33:10.659Z,16.2
2022-10-01T15:34:24.877Z,16.2
2022-10-01T15:35:39.195Z,16.4
2022-10-01T15:36:53.430Z,17.5
2022-10-01T15:38:07.654Z,17.4
2022-10-01T15:39:21.884Z,17.1
2022-10-01T15:40:36.121Z,17.5
2022-10-01T15:41:50.408Z,17.3
2022-10-01T15:43:04.660Z,17.1
2022-10-01T15:44:18.879Z,17
2022-10-01T15:45:33.112Z,16.9
2022-10-01T15:46:47.328Z,16.8
2022-10-01T15:48:01.642Z,16.7
2022-10-01T15:49:15.882Z,16.7
2022-10-01T15:50:30.098Z,16.7
2022-10-01T15:51:44.320Z,16.8
2022-10-01T15:52:58.559Z,16.9
2022-10-01T15:54:12.915Z,17
2022-10-01T15:55:27.193Z,16.9
2022-10-01T15:56:40.541Z,16.9
2022-10-01T15:57:53.875Z,16.8
2022-10-01T15:59:08.172Z,16.8
2022-10-01T16:00:21.466Z,16.7
2022-10-01T16:01:35.686Z,16.6
2022-10-01T16:02:49.977Z,16.6
2022-10-01T16:04:04.225Z,16.6
2022-10-01T16:05:18.458Z,16.6
2022-10-01T16:06:32.683Z,16.5
2022-10-01T16:07:46.909Z,16.5
2022-10-01T16:09:01.199Z,16.4
2022-10-01T16:10:15.441Z,16.4
2022-10-01T16:11:29.675Z,16.3
2022-10-01T16:12:43.906Z,16.3
2022-10-01T16:13:58.130Z,16.3
2022-10-01T16:15:12.421Z,16.3
2022-10-01T16:16:26.655Z,16.2
2022-10-01T16:18:55.111Z,16.1
2022-10-01T16:20:09.336Z,16
2022-10-01T16:21:23.647Z,16
2022-10-01T16:22:37.885Z,16
2022-10-01T16:23:52.116Z,16.1
2022-10-01T16:25:06.341Z,16.2
2022-10-01T16:26:20.561Z,16.2
2022-10-01T16:27:34.857Z,16.3
2022-10-01T16:28:49.101Z,16.3
2022-10-01T16:30:03.332Z,16.3
2022-10-01T16:31:17.606Z,16.3
2022-10-01T16:32:30.942Z,16.3
2022-10-01T16:33:45.225Z,16.2
2022-10-01T16:34:58.527Z,16.1
2022-10-01T16:36:12.748Z,16
2022-10-01T16:37:27.053Z,15.9
2022-10-01T16:38:41.287Z,15.9
2022-10-01T16:39:55.517Z,15.8
2022-10-01T16:41:09.744Z,15.6
2022-10-01T16:42:23.974Z,15.6
2022-10-01T16:43:38.268Z,15.5
2022-10-01T16:44:52.508Z,15.5